Latest Weather Observations for Campania

IDT60801

Issued at 3:01 am EST Monday 27 June 2016 (issued every 30 minutes, with the page automatically refreshed every 10 minutes)

About weather observations | Map of weather stations | Latest weather observations for TAS | Other Formats
Station Details ID: 094212 Name: CAMPANIA (KINCORA) Lat: -42.69 Lon: 147.43 Height: 45.0 m
Data from the previous 72 hours. | See also: Recent months at Campania
Date/Time
EST
Temp
°C
App
Temp
°C
Dew
Point
Rel
Hum
%
Delta-T
°C
Wind Press
QNH
hPa
Press
MSL
hPa
Rain
since 9 am
mm
Dir
 
Spd
km/h
Gust
km/h
Spd
kts
Gust
kts
27/03:00am 6.4 3.6 3.4 81 1.3 N 7 11 4 6 - - 0.0
27/02:30am 7.5 2.5 3.4 75 1.7 NNE 19 24 10 13 - - 0.0
27/02:00am 7.2 2.8 2.7 73 1.9 NNE 15 20 8 11 - - 0.0
27/01:30am 9.6 5.0 3.6 66 2.6 NW 17 24 9 13 - - 0.0
27/01:00am 7.1 3.9 2.8 74 1.8 NNW 9 11 5 6 - - 0.0
27/12:30am 7.9 5.1 3.0 71 2.1 N 7 11 4 6 - - 0.0
27/12:00am 9.2 5.7 3.6 68 2.4 NNW 11 17 6 9 - - 0.0
 
Date/Time
EST
Temp
°C
App
Temp
°C
Dew
Point
Rel
Hum
%
Delta-T
°C
Wind Press
QNH
hPa
Press
MSL
hPa
Rain
since 9 am
mm
Dir
 
Spd
km/h
Gust
km/h
Spd
kts
Gust
kts
26/11:30pm 9.0 6.3 3.6 69 2.3 NW 7 17 4 9 - - 0.0
26/11:00pm 8.5 3.0 3.9 73 2.0 N 22 26 12 14 - - 0.0
26/10:30pm 8.9 3.3 3.7 70 2.3 N 22 32 12 17 - - 0.0
26/10:00pm 8.7 3.2 3.9 72 2.1 N 22 30 12 16 - - 0.0
26/09:30pm 8.8 3.2 3.6 70 2.3 N 22 33 12 18 - - 0.0
26/09:00pm 9.4 3.1 3.6 67 2.5 N 26 33 14 18 - - 0.0
26/08:30pm 9.6 2.9 3.8 67 2.5 N 28 33 15 18 - - 0.0
26/08:00pm 9.4 2.8 4.0 69 2.4 N 28 35 15 19 - - 0.0
26/07:30pm 9.1 4.5 3.9 70 2.3 N 17 20 9 11 - - 0.0
26/07:00pm 8.5 4.3 3.9 73 2.0 N 15 20 8 11 - - 0.0
26/06:30pm 8.2 5.5 3.9 74 1.9 NW 7 11 4 6 - - 0.0
26/06:00pm 9.1 6.2 4.5 73 2.0 N 9 15 5 8 - - 0.0
26/05:30pm 10.1 5.1 4.7 69 2.4 N 20 28 11 15 - - 0.0
26/05:00pm 10.4 5.0 4.3 66 2.7 N 22 28 12 15 - - 0.0
26/04:30pm 10.1 6.6 5.3 72 2.2 N 13 20 7 11 - - 0.0
26/04:00pm 10.3 6.4 5.3 71 2.3 N 15 19 8 10 - - 0.0
26/03:30pm 11.4 7.9 5.5 67 2.7 N 13 17 7 9 - - 0.0
26/03:00pm 12.1 8.6 5.5 64 3.1 N 13 19 7 10 - - 0.0
26/02:30pm 12.6 9.2 6.0 64 3.1 N 13 20 7 11 - - 0.0
26/02:00pm 12.5 7.9 6.5 67 2.9 N 20 28 11 15 - - 0.0
26/01:30pm 12.0 7.4 5.6 65 3.0 N 19 24 10 13 - - 0.0
26/01:00pm 13.3 9.9 5.9 61 3.5 N 13 19 7 10 - - 0.0
26/12:30pm 13.4 9.9 5.3 58 3.8 NNW 13 20 7 11 - - 0.0
26/12:00pm 13.1 8.3 5.8 61 3.4 N 20 24 11 13 - - 0.0
26/11:30am 12.6 7.8 5.5 62 3.3 N 20 28 11 15 - - 0.0
26/11:00am 11.9 7.2 6.0 67 2.8 N 20 26 11 14 - - 0.0
26/10:30am 11.0 6.3 5.3 68 2.6 N 19 28 10 15 - - 0.0
26/10:00am 10.4 7.8 6.0 74 2.0 N 9 13 5 7 - - 0.0
26/09:30am 8.1 4.2 5.4 83 1.2 NNE 15 17 8 9 - - 0.0
26/09:00am 6.3 3.8 4.8 90 0.7 N 7 11 4 6 - - 0.2
26/08:30am 3.9 1.2 2.6 91 0.5 N 6 9 3 5 - - 0.2
26/08:00am 3.6 0.2 2.1 90 0.6 N 9 9 5 5 - - 0.2
26/07:30am 4.8 0.2 3.5 91 0.5 N 17 20 9 11 - - 0.2
26/07:00am 4.2 1.0 3.0 92 0.5 N 9 13 5 7 - - 0.2
26/06:30am 3.8 -0.3 2.5 91 0.5 N 13 15 7 8 - - 0.2
26/06:00am 4.5 0.9 3.2 91 0.5 NE 11 15 6 8 - - 0.2
26/05:30am 4.2 0.9 2.7 90 0.6 N 9 13 5 7 - - 0.2
26/05:00am 4.4 1.2 2.9 90 0.6 N 9 13 5 7 - - 0.2
26/04:30am 4.1 0.4 2.6 90 0.6 N 11 13 6 7 - - 0.2
26/04:00am 4.8 1.2 3.0 88 0.7 N 11 13 6 7 - - 0.2
26/03:30am 5.6 2.5 3.6 87 0.8 N 9 13 5 7 - - 0.2
26/03:00am 5.5 2.4 3.8 89 0.7 N 9 15 5 8 - - 0.0
26/02:30am 4.9 2.1 3.1 88 0.7 N 7 11 4 6 - - 0.0
26/02:00am 5.7 2.3 4.0 89 0.7 NNW 11 13 6 7 - - 0.0
26/01:30am 5.0 1.1 3.3 89 0.7 NNW 13 17 7 9 - - 0.0
26/01:00am 4.5 0.5 3.0 90 0.6 NNW 13 15 7 8 - - 0.0
26/12:30am 4.4 0.8 2.9 90 0.6 N 11 13 6 7 - - 0.0
26/12:00am 4.7 0.0 3.4 91 0.5 N 17 20 9 11 - - 0.0
 
Date/Time
EST
Temp
°C
App
Temp
°C
Dew
Point
Rel
Hum
%
Delta-T
°C
Wind Press
QNH
hPa
Press
MSL
hPa
Rain
since 9 am
mm
Dir
 
Spd
km/h
Gust
km/h
Spd
kts
Gust
kts
25/11:30pm 4.6 -0.1 3.1 90 0.6 N 17 19 9 10 - - 0.0
25/11:00pm 3.7 0.7 2.2 90 0.6 N 7 11 4 6 - - 0.0
25/10:30pm 4.6 1.4 2.9 89 0.7 N 9 13 5 7 - - 0.0
25/10:00pm 5.3 1.4 3.6 89 0.7 N 13 19 7 10 - - 0.0
25/09:30pm 3.7 0.0 2.2 90 0.6 N 11 13 6 7 - - 0.0
25/09:00pm 4.8 0.9 3.5 91 0.5 N 13 15 7 8 - - 0.0
25/08:30pm 4.6 0.6 2.8 88 0.7 NNW 13 15 7 8 - - 0.0
25/08:00pm 4.8 1.9 2.8 87 0.8 N 7 11 4 6 - - 0.0
25/07:30pm 5.7 3.0 3.5 86 0.9 N 7 9 4 5 - - 0.0
25/07:00pm 6.0 3.4 4.0 87 0.9 NW 7 9 4 5 - - 0.0
25/06:30pm 5.7 2.5 3.2 84 1.0 NNW 9 13 5 7 - - 0.0
25/06:00pm 6.7 3.9 3.1 78 1.5 WNW 7 11 4 6 - - 0.0
25/05:30pm 7.4 4.6 3.3 75 1.7 NW 7 9 4 5 - - 0.0
25/05:00pm 9.0 4.8 4.0 71 2.2 NW 15 19 8 10 - - 0.0
25/04:30pm 8.8 5.7 3.6 70 2.3 NW 9 13 5 7 - - 0.0
25/04:00pm 9.3 6.3 3.9 69 2.4 NNW 9 13 5 7 - - 0.0
25/03:30pm 9.7 5.1 3.7 66 2.6 NW 17 24 9 13 - - 0.0
25/03:00pm 10.5 5.8 3.3 61 3.1 WNW 17 24 9 13 - - 0.0
25/02:30pm 10.6 6.7 3.2 60 3.2 WNW 13 22 7 12 - - 0.0
25/02:00pm 9.5 5.0 2.4 61 3.0 WNW 15 24 8 13 - - 0.0
25/01:30pm 10.3 6.7 2.7 59 3.3 WNW 11 20 6 11 - - 0.0
25/01:00pm 9.4 4.1 2.0 60 3.1 WNW 19 26 10 14 - - 0.0
25/12:30pm 9.7 5.2 2.3 60 3.1 WNW 15 22 8 12 - - 0.0
25/12:00pm 9.2 4.5 1.1 57 3.3 WNW 15 22 8 12 - - 0.0
25/11:30am 9.1 5.3 2.0 61 3.0 NW 11 15 6 8 - - 0.0
25/11:00am 8.7 5.4 2.3 64 2.7 NW 9 13 5 7 - - 0.0
25/10:30am 6.7 2.5 1.8 71 2.0 NNE 13 15 7 8 - - 0.0
25/10:00am 5.5 0.8 1.2 74 1.7 N 15 17 8 9 - - 0.0
25/09:30am 4.4 0.8 0.9 78 1.4 N 9 13 5 7 - - 0.0
25/09:00am 2.7 -2.6 -0.6 79 1.2 NNE 17 20 9 11 - - 0.0
25/08:30am 5.4 1.3 -0.2 67 2.1 W 11 17 6 9 - - 0.0
25/08:00am 3.6 0.0 0.8 82 1.1 WNW 9 17 5 9 - - 0.0
25/07:30am 2.4 -1.9 -1.4 76 1.4 WNW 11 22 6 12 - - 0.0
25/07:00am 1.4 -2.0 -0.8 85 0.8 N 7 11 4 6 - - 0.0
25/06:30am 0.7 -3.6 -1.5 85 0.8 N 11 15 6 8 - - 0.0
25/06:00am 0.8 -2.7 -1.6 84 0.9 N 7 13 4 7 - - 0.0
25/05:30am 1.1 -2.4 -1.5 83 0.9 NNW 7 11 4 6 - - 0.0
25/05:00am 1.4 -2.3 -2.9 73 1.5 NNE 7 9 4 5 - - 0.0
25/04:30am 4.3 -0.6 -0.5 71 1.8 W 15 22 8 12 - - 0.0
25/04:00am 1.2 -3.0 -1.0 85 0.8 NW 11 13 6 7 - - 0.0
25/03:30am 1.3 -2.1 -1.9 79 1.1 NE 6 6 3 3 - - 0.0
25/03:00am 1.8 -2.0 -0.8 83 0.9 NNW 9 13 5 7 - - 0.0
25/02:30am 1.4 -1.9 -1.3 82 1.0 NNE 6 11 3 6 - - 0.0
25/02:00am 1.1 -1.8 -1.0 86 0.7 N 4 9 2 5 - - 0.0
25/01:30am 0.9 -1.3 -1.2 86 0.7 CALM 0 6 0 3 - - 0.0
25/01:00am 1.5 -3.1 -0.7 85 0.8 N 13 15 7 8 - - 0.0
25/12:30am 1.3 -2.2 -1.4 82 0.9 N 7 11 4 6 - - 0.0
25/12:00am 3.8 -0.3 -0.2 75 1.5 WSW 11 17 6 9 - - 0.0
 
Date/Time
EST
Temp
°C
App
Temp
°C
Dew
Point
Rel
Hum
%
Delta-T
°C
Wind Press
QNH
hPa
Press
MSL
hPa
Rain
since 9 am
mm
Dir
 
Spd
km/h
Gust
km/h
Spd
kts
Gust
kts
24/11:30pm 3.5 -0.7 -0.7 74 1.5 NW 11 15 6 8 - - 0.0
24/11:00pm 4.4 -0.8 0.0 73 1.7 W 17 20 9 11 - - 0.0
24/10:30pm 4.6 -1.0 0.0 72 1.7 W 19 26 10 14 - - 0.0
24/10:00pm 5.0 -0.8 -0.2 69 2.0 W 20 26 11 14 - - 0.0
24/09:30pm 4.9 -0.3 -0.1 70 1.9 WNW 17 22 9 12 - - 0.0
24/09:00pm 5.2 0.7 0.0 69 2.0 WNW 13 20 7 11 - - 0.0
24/08:30pm 5.2 0.0 0.2 70 1.9 W 17 20 9 11 - - 0.0
24/08:00pm 5.7 0.6 0.5 69 2.0 W 17 24 9 13 - - 0.0
24/07:30pm 5.7 0.6 0.5 69 2.0 W 17 24 9 13 - - 0.0
24/07:00pm 5.6 0.8 0.4 69 2.0 W 15 20 8 11 - - 0.0
24/06:30pm 5.6 1.2 0.4 69 2.0 W 13 20 7 11 - - 0.0
24/06:00pm 6.6 1.1 0.3 64 2.5 W 19 24 10 13 - - 0.0
24/05:30pm 6.4 1.3 0.5 66 2.3 W 17 22 9 12 - - 0.0
24/05:00pm 6.4 2.1 0.7 67 2.2 W 13 19 7 10 - - 0.0
24/04:30pm 6.9 2.2 1.0 66 2.4 W 15 20 8 11 - - 0.0
24/04:00pm 7.6 3.3 1.0 63 2.7 WSW 13 22 7 12 - - 0.0
24/03:30pm 8.4 3.8 1.3 61 2.9 W 15 19 8 10 - - 0.0
24/03:00pm 7.8 3.9 1.2 63 2.7 W 11 17 6 9 - - 0.0
24/02:30pm 8.1 3.0 0.6 59 3.0 SW 17 28 9 15 - - 0.0
24/02:00pm 8.7 4.9 1.8 62 2.9 W 11 20 6 11 - - 0.0
24/01:30pm 8.8 4.7 2.2 63 2.8 WNW 13 19 7 10 - - 0.0
24/01:00pm 8.6 4.1 2.4 65 2.6 NW 15 20 8 11 - - 0.0
24/12:30pm 8.2 4.6 2.7 68 2.3 WNW 11 15 6 8 - - 0.0
24/12:00pm 7.5 4.2 2.2 69 2.2 N 9 15 5 8 - - 0.0
24/11:30am 6.9 2.6 3.0 76 1.6 NW 15 19 8 10 - - 0.0
24/11:00am 6.0 2.7 2.5 78 1.4 W 9 13 5 7 - - 0.0
24/10:30am 5.3 2.5 2.1 80 1.3 N 6 9 3 5 - - 0.0
24/10:00am 5.1 0.6 1.9 80 1.3 N 15 17 8 9 - - 0.0
24/09:30am 3.9 -0.7 1.4 84 1.0 N 15 20 8 11 - - 0.0
24/09:00am 2.8 -1.9 0.7 86 0.8 NNE 15 22 8 12 - - 7.0
24/08:30am 2.2 -1.8 0.3 87 0.7 N 11 13 6 7 - - 7.0
24/08:00am 2.4 -2.7 0.8 89 0.6 N 17 24 9 13 - - 7.0
24/07:30am 1.3 -2.8 0.0 91 0.5 N 11 17 6 9 - - 7.0
24/07:00am 1.2 -2.5 -0.1 91 0.5 NNW 9 11 5 6 - - 7.0
24/06:30am 1.3 -2.4 0.0 91 0.5 N 9 13 5 7 - - 7.0
24/06:00am 1.0 -3.1 -0.5 90 0.5 NNW 11 13 6 7 - - 7.0
24/05:30am 0.9 -2.9 -0.7 89 0.6 NNW 9 11 5 6 - - 7.0
24/05:00am 0.9 -1.2 -1.0 87 0.7 CALM 0 0 0 0 - - 7.0
24/04:30am 2.0 -1.1 -0.1 86 0.8 W 6 11 3 6 - - 7.0
24/04:00am 1.9 -0.2 -0.5 84 0.9 CALM 0 0 0 0 - - 7.0
24/03:30am 3.4 0.7 0.1 79 1.2 ESE 4 7 2 4 - - 7.0

Other Formats:

Comma delimited format used in spreadsheet applications
http://www.bom.gov.au/fwo/IDT60801/IDT60801.95972.axf

JavaScript Object Notation format (JSON) in row-major order
http://www.bom.gov.au/fwo/IDT60801/IDT60801.95972.json